createdAt,value
2019-04-06T00:01:40.759Z,8.06
2019-04-06T00:06:37.881Z,7.93
2019-04-06T00:11:34.966Z,7.99
2019-04-06T00:16:32.122Z,7.91
2019-04-06T00:21:29.216Z,7.59
2019-04-06T00:26:26.211Z,7.70
2019-04-06T00:31:26.346Z,7.82
2019-04-06T00:36:23.307Z,7.98
2019-04-06T00:41:20.690Z,7.74
2019-04-06T00:46:17.710Z,7.78
2019-04-06T00:51:14.934Z,7.71
2019-04-06T00:56:11.973Z,7.66
2019-04-06T01:01:09.010Z,7.74
2019-04-06T01:06:06.083Z,7.69
2019-04-06T01:11:03.090Z,7.64
2019-04-06T01:16:00.069Z,7.62
2019-04-06T01:20:57.178Z,7.56
2019-04-06T01:25:54.279Z,7.52
2019-04-06T01:30:51.337Z,7.56
2019-04-06T01:35:48.302Z,7.37
2019-04-06T01:40:45.619Z,7.31
2019-04-06T01:45:42.682Z,7.21
2019-04-06T01:50:39.858Z,7.18
2019-04-06T01:55:36.794Z,7.17
2019-04-06T02:00:35.645Z,7.08
2019-04-06T02:05:33.011Z,7.04
2019-04-06T02:10:30.078Z,7.13
2019-04-06T02:15:27.042Z,7.18
2019-04-06T02:20:24.070Z,7.12
2019-04-06T02:25:21.133Z,7.34
2019-04-06T02:30:28.851Z,7.28
2019-04-06T02:35:44.341Z,7.35
2019-04-06T02:40:55.123Z,7.44
2019-04-06T02:45:52.395Z,7.27
2019-04-06T02:50:51.402Z,7.20
2019-04-06T02:55:48.431Z,7.27
2019-04-06T03:00:45.549Z,7.30
2019-04-06T03:05:42.618Z,7.25
2019-04-06T03:10:39.647Z,7.30
2019-04-06T03:15:36.733Z,7.41
2019-04-06T03:20:35.669Z,7.42
2019-04-06T03:25:32.715Z,7.52
2019-04-06T03:30:30.303Z,7.48
2019-04-06T03:35:27.745Z,7.64
2019-04-06T03:40:25.045Z,7.69
2019-04-06T03:45:22.004Z,7.63
2019-04-06T03:50:20.189Z,7.75
2019-04-06T03:55:17.310Z,7.76
2019-04-06T04:00:14.858Z,7.75
2019-04-06T04:05:11.916Z,7.90
2019-04-06T04:10:13.014Z,7.80
2019-04-06T04:15:10.376Z,7.69
2019-04-06T04:20:07.896Z,7.54
2019-04-06T04:25:05.036Z,7.63
2019-04-06T04:30:03.355Z,7.53
2019-04-06T04:35:00.761Z,7.67
2019-04-06T04:40:01.891Z,7.81
2019-04-06T04:44:59.230Z,7.66
2019-04-06T04:49:58.507Z,7.45
2019-04-06T04:54:55.668Z,7.65
2019-04-06T04:59:54.142Z,7.66
2019-04-06T05:04:51.133Z,7.79
2019-04-06T05:09:48.186Z,7.80
2019-04-06T05:15:14.718Z,8.04
2019-04-06T05:20:13.604Z,7.94
2019-04-06T05:25:10.744Z,8.20
2019-04-06T05:30:08.887Z,8.53
2019-04-06T05:35:06.329Z,8.76
2019-04-06T05:40:05.527Z,9.00
2019-04-06T05:45:05.327Z,9.18
2019-04-06T05:50:04.314Z,9.41
2019-04-06T05:55:03.919Z,9.72
2019-04-06T06:00:10.502Z,9.92
2019-04-06T06:05:10.427Z,9.98
2019-04-06T06:10:08.434Z,10.19
2019-04-06T06:15:08.766Z,10.67
2019-04-06T06:20:05.992Z,10.92
2019-04-06T06:25:05.071Z,11.41
2019-04-06T06:30:05.428Z,11.82
2019-04-06T06:35:04.246Z,12.03
2019-04-06T06:40:01.279Z,12.63
2019-04-06T06:44:58.472Z,13.20
2019-04-06T06:49:55.581Z,13.83
2019-04-06T06:54:52.642Z,13.87
2019-04-06T06:59:51.213Z,14.14
2019-04-06T07:04:54.942Z,14.39
2019-04-06T07:10:04.696Z,14.53
2019-04-06T07:14:53.781Z,14.51
2019-04-06T07:19:54.459Z,14.67
2019-04-06T07:24:51.969Z,14.81
2019-04-06T07:29:49.008Z,14.54
2019-04-06T07:34:46.005Z,15.87
2019-04-06T07:39:43.047Z,16.09
2019-04-06T07:44:47.814Z,16.12
2019-04-06T07:49:59.624Z,15.54
2019-04-06T07:54:56.808Z,15.88
2019-04-06T07:59:55.753Z,15.66
2019-04-06T08:04:55.917Z,15.88
2019-04-06T08:09:54.662Z,15.82
2019-04-06T08:14:53.679Z,16.14
2019-04-06T08:19:50.904Z,16.88
2019-04-06T08:24:49.902Z,17.30
2019-04-06T08:29:49.300Z,17.55
2019-04-06T08:34:46.395Z,17.87
2019-04-06T08:39:43.505Z,17.64
2019-04-06T08:44:40.569Z,18.44
2019-04-06T08:49:39.621Z,18.58
2019-04-06T08:54:41.079Z,19.30
2019-04-06T08:59:35.814Z,19.77
2019-04-06T09:04:34.755Z,20.43
2019-04-06T09:09:34.991Z,20.67
2019-04-06T09:14:31.969Z,20.88
2019-04-06T09:19:29.100Z,20.96
2019-04-06T09:24:26.211Z,21.31
2019-04-06T09:29:24.653Z,21.58
2019-04-06T09:34:22.270Z,22.28
2019-04-06T09:39:19.340Z,22.68
2019-04-06T09:44:20.607Z,22.42
2019-04-06T09:49:19.637Z,22.17
2019-04-06T09:54:16.513Z,23.27
2019-04-06T09:59:15.505Z,23.73
2019-04-06T10:04:29.738Z,24.24
2019-04-06T10:09:39.170Z,23.08
2019-04-06T10:14:38.497Z,22.98
2019-04-06T10:19:54.456Z,23.11
2019-04-06T10:24:56.237Z,22.96
2019-04-06T10:30:08.961Z,23.26
2019-04-06T10:35:08.430Z,23.34
2019-04-06T10:40:07.459Z,22.79
2019-04-06T10:45:06.372Z,22.46
2019-04-06T10:50:15.046Z,22.13
2019-04-06T10:55:19.977Z,22.29
2019-04-06T11:00:26.346Z,22.18
2019-04-06T11:05:37.431Z,21.28
2019-04-06T11:10:36.018Z,21.02
2019-04-06T11:15:37.615Z,20.55
2019-04-06T11:20:55.449Z,20.16
2019-04-06T11:26:04.281Z,20.10
2019-04-06T11:31:18.170Z,20.20
2019-04-06T11:36:20.226Z,19.99
2019-04-06T11:41:26.212Z,19.78
2019-04-06T11:46:28.076Z,20.18
2019-04-06T11:51:35.680Z,19.71
2019-04-06T11:56:35.546Z,19.93
2019-04-06T12:01:36.985Z,20.36
2019-04-06T12:06:35.915Z,20.93
2019-04-06T12:11:52.936Z,20.57
2019-04-06T12:16:55.805Z,20.41
2019-04-06T12:22:09.851Z,20.58
2019-04-06T12:27:25.653Z,20.24
2019-04-06T12:32:41.487Z,20.96
2019-04-06T12:37:57.016Z,21.33
2019-04-06T12:43:12.112Z,20.88
2019-04-06T12:48:10.871Z,20.32
2019-04-06T12:53:26.071Z,20.11
2019-04-06T12:58:30.978Z,19.85
2019-04-06T13:03:41.000Z,19.13
2019-04-06T13:08:52.002Z,18.72
2019-04-06T13:13:50.872Z,18.63
2019-04-06T13:18:57.232Z,18.22
2019-04-06T13:24:12.556Z,18.06
2019-04-06T13:29:18.525Z,17.67
2019-04-06T13:34:17.487Z,17.32
2019-04-06T13:39:16.295Z,17.36
2019-04-06T13:44:28.344Z,17.37
2019-04-06T13:49:29.920Z,17.25
2019-04-06T13:54:37.676Z,16.96
2019-04-06T13:59:46.822Z,17.04
2019-04-06T14:04:48.917Z,17.08
2019-04-06T14:09:45.875Z,16.99
2019-04-06T14:14:53.651Z,16.59
2019-04-06T14:19:53.635Z,16.58
2019-04-06T14:24:52.871Z,16.46
2019-04-06T14:29:55.874Z,16.26
2019-04-06T14:34:59.274Z,16.35
2019-04-06T14:40:13.900Z,16.34
2019-04-06T14:45:10.869Z,16.29
2019-04-06T14:50:20.614Z,16.34
2019-04-06T14:55:21.452Z,16.31
2019-04-06T15:00:20.352Z,16.26
2019-04-06T15:05:19.204Z,16.08
2019-04-06T15:10:20.653Z,16.09
2019-04-06T15:15:20.925Z,15.91
2019-04-06T15:20:31.515Z,15.67
2019-04-06T15:25:33.261Z,15.27
2019-04-06T15:30:36.560Z,15.40
2019-04-06T15:35:51.681Z,15.36
2019-04-06T15:41:08.944Z,15.15
2019-04-06T15:46:07.804Z,15.13
2019-04-06T15:51:24.772Z,15.05
2019-04-06T15:56:40.392Z,15.09
2019-04-06T16:02:01.524Z,15.11
2019-04-06T16:07:15.473Z,14.86
2019-04-06T16:12:19.962Z,14.77
2019-04-06T16:17:24.055Z,14.80
2019-04-06T16:22:24.032Z,14.55
2019-04-06T16:27:24.853Z,14.48
2019-04-06T16:32:41.102Z,14.31
2019-04-06T16:37:48.287Z,14.16
2019-04-06T16:42:49.218Z,13.98
2019-04-06T16:48:02.057Z,13.90
2019-04-06T16:53:04.200Z,13.83
2019-04-06T16:58:21.831Z,13.53
2019-04-06T17:03:20.997Z,13.42
2019-04-06T17:08:25.921Z,13.34
2019-04-06T17:13:24.922Z,13.40
2019-04-06T17:18:23.917Z,13.42
2019-04-06T17:23:23.841Z,13.34
2019-04-06T17:28:23.915Z,13.28
2019-04-06T17:33:25.638Z,13.31
2019-04-06T17:38:37.322Z,13.23
2019-04-06T17:43:37.379Z,13.30
2019-04-06T17:48:45.366Z,13.22
2019-04-06T17:53:47.513Z,13.35
2019-04-06T17:58:52.554Z,13.31
2019-04-06T18:03:49.642Z,13.21
2019-04-06T18:08:48.578Z,12.97
2019-04-06T18:13:48.398Z,12.90
2019-04-06T18:18:45.665Z,12.81
2019-04-06T18:23:43.807Z,12.92
2019-04-06T18:28:41.701Z,13.00
2019-04-06T18:33:41.227Z,12.84
2019-04-06T18:38:42.726Z,12.87
2019-04-06T18:43:40.553Z,12.98
2019-04-06T18:48:38.431Z,12.94
2019-04-06T18:53:37.638Z,12.64
2019-04-06T18:58:35.474Z,12.69
2019-04-06T19:03:34.734Z,12.87
2019-04-06T19:08:32.365Z,12.63
2019-04-06T19:13:31.625Z,12.80
2019-04-06T19:18:28.799Z,12.90
2019-04-06T19:23:27.706Z,12.90
2019-04-06T19:28:25.731Z,12.57
2019-04-06T19:33:25.585Z,12.75
2019-04-06T19:38:22.266Z,12.83
2019-04-06T19:43:19.482Z,12.63
2019-04-06T19:48:16.624Z,12.54
2019-04-06T19:53:13.671Z,12.55
2019-04-06T19:58:10.842Z,12.42
2019-04-06T20:03:07.924Z,12.20
2019-04-06T20:08:05.105Z,12.32
2019-04-06T20:13:02.291Z,12.43
2019-04-06T20:17:59.504Z,12.27
2019-04-06T20:22:56.930Z,12.31
2019-04-06T20:27:54.311Z,12.43
2019-04-06T20:32:53.775Z,12.41
2019-04-06T20:37:51.131Z,12.17
2019-04-06T20:42:50.055Z,12.18
2019-04-06T20:47:47.638Z,12.20
2019-04-06T20:52:44.975Z,12.23
2019-04-06T20:57:42.631Z,12.13
2019-04-06T21:02:40.288Z,12.06
2019-04-06T21:07:37.411Z,11.87
2019-04-06T21:12:34.482Z,11.87
2019-04-06T21:17:31.568Z,11.76
2019-04-06T21:22:28.547Z,11.29
2019-04-06T21:27:26.101Z,11.22
2019-04-06T21:32:23.380Z,11.36
2019-04-06T21:37:22.043Z,11.38
2019-04-06T21:42:19.820Z,11.59
2019-04-06T21:47:16.882Z,11.68
2019-04-06T21:52:13.856Z,11.63
2019-04-06T21:57:10.967Z,11.78
2019-04-06T22:02:09.630Z,11.74
2019-04-06T22:07:06.808Z,11.77
2019-04-06T22:12:03.858Z,11.80
2019-04-06T22:17:01.497Z,11.65
2019-04-06T22:21:58.783Z,11.68
2019-04-06T22:26:56.389Z,11.64
2019-04-06T22:31:55.245Z,11.56
2019-04-06T22:36:52.665Z,11.58
2019-04-06T22:41:50.608Z,11.43
2019-04-06T22:46:47.740Z,11.31
2019-04-06T22:51:47.024Z,11.39
2019-04-06T22:56:44.238Z,11.27
2019-04-06T23:01:42.554Z,11.22
2019-04-06T23:06:41.597Z,11.11
2019-04-06T23:11:38.780Z,11.09
2019-04-06T23:16:35.846Z,10.66
2019-04-06T23:21:32.866Z,10.61
2019-04-06T23:26:30.678Z,10.61
2019-04-06T23:31:27.953Z,10.48
2019-04-06T23:36:25.055Z,10.40
2019-04-06T23:41:22.129Z,10.12
2019-04-06T23:46:19.311Z,9.93
2019-04-06T23:51:16.330Z,9.89
2019-04-06T23:56:13.732Z,9.89
